Time;durP1;ratioP1;P1;durP2;ratioP2;P2;SDS_P1;SDS_P2;PMS_P1;PMS_P2;Temp;Humidity;BMP_temperature;BMP_pressure;BME280_temperature;BME280_humidity;BME280_pressure;Samples;Min_cycle;Max_cycle;Signal;HPM_P1;HPM_P2
2022/12/04 00:03:20;;;;;;;;;;;;;;;;;;;;;
2022/12/04 00:07:17;;;;;;;41.42;27.08;;;0.80;99.90;;;;;;4756261;30;20056;-86
2022/12/04 00:10:55;;;;;;;;;;;;;;;;;;;;;
2022/12/04 00:16:42;;;;;;;51.00;30.25;;;1.30;99.90;;;;;;4820802;29;20413;-86
2022/12/04 00:19:22;;;;;;;41.50;26.88;;;1.30;99.90;;;;;;4807610;29;20057;-87
2022/12/04 00:21:49;;;;;;;45.42;28.38;;;0.70;99.90;;;;;;4814028;29;20267;-87
2022/12/04 00:24:15;;;;;;;45.28;28.27;;;-0.10;99.90;;;;;;4806161;29;20049;-87
2022/12/04 00:26:41;;;;;;;46.85;28.75;;;1.70;99.90;;;;;;4820793;29;20042;-87
2022/12/04 00:29:07;;;;;;;45.75;28.58;;;0.70;99.90;;;;;;4822817;29;20573;-86
2022/12/04 00:31:41;;;;;;;44.92;28.98;;;1.60;99.90;;;;;;4807607;29;20044;-86
2022/12/04 00:34:07;;;;;;;43.92;27.20;;;0.70;99.90;;;;;;4811955;29;20060;-86
2022/12/04 00:36:35;;;;;;;50.97;29.95;;;0.70;99.90;;;;;;4808408;29;20046;-86
2022/12/04 00:39:02;;;;;;;48.60;28.52;;;1.80;99.90;;;;;;4822749;29;20042;-86
2022/12/04 00:41:36;;;;;;;44.15;27.23;;;0.70;99.90;;;;;;4822251;29;20187;-86
2022/12/04 00:44:08;;;;;;;45.25;27.25;;;1.70;99.90;;;;;;4824216;29;20053;-87
2022/12/04 00:46:37;;;;;;;49.63;29.77;;;0.60;99.90;;;;;;4820500;29;21493;-87
2022/12/04 00:49:21;;;;;;;44.30;26.88;;;0.70;99.90;;;;;;4820211;29;20034;-86
2022/12/04 00:51:55;;;;;;;43.30;27.58;;;1.50;99.90;;;;;;4822990;29;20042;-86
2022/12/04 00:54:58;;;;;;;;;;;;;;;;;;;;;
2022/12/04 00:57:33;;;;;;;45.35;27.50;;;1.50;99.90;;;;;;4877579;24;20085;-86
2022/12/04 01:00:03;;;;;;;45.28;28.75;;;1.40;99.90;;;;;;4806686;29;20123;-87
2022/12/04 01:02:48;;;;;;;46.33;27.50;;;0.90;99.90;;;;;;4819564;29;20045;-87
2022/12/04 01:05:46;;;;;;;47.47;28.70;;;0.80;99.90;;;;;;4820151;29;20050;-87
2022/12/04 01:08:17;;;;;;;44.08;26.67;;;0.80;99.90;;;;;;4819847;29;20538;-86
2022/12/04 01:11:23;;;;;;;;;;;;;;;;;;;;;
2022/12/04 01:14:03;;;;;;;46.90;27.50;;;-0.30;99.90;;;;;;4803490;29;20049;-86
2022/12/04 01:17:00;;;;;;;43.58;27.42;;;0.70;99.90;;;;;;4786842;29;20046;-87
2022/12/04 01:19:50;;;;;;;45.65;27.90;;;0.60;99.90;;;;;;4801157;29;20054;-87
2022/12/04 01:25:51;;;;;;;45.80;27.15;;;1.00;99.90;;;;;;4813981;29;20078;-86
2022/12/04 01:28:32;;;;;;;46.20;28.10;;;0.00;99.90;;;;;;4788935;29;20058;-86
2022/12/04 01:31:11;;;;;;;50.35;29.45;;;0.70;99.90;;;;;;4786974;29;20069;-87
2022/12/04 01:33:56;;;;;;;46.72;29.52;;;0.60;99.90;;;;;;4817930;29;20041;-86
2022/12/04 01:36:41;;;;;;;47.97;29.33;;;1.40;99.90;;;;;;4787403;29;20038;-87
2022/12/04 01:39:07;;;;;;;44.10;28.42;;;1.90;99.90;;;;;;4803972;29;20077;-85
2022/12/04 01:41:36;;;;;;;46.42;28.42;;;0.70;99.90;;;;;;4803724;29;20038;-86
2022/12/04 01:44:31;;;;;;;44.20;28.73;;;1.30;99.90;;;;;;4805117;29;20451;-86
2022/12/04 01:47:17;;;;;;;50.20;29.65;;;0.90;99.90;;;;;;4808625;29;20137;-86
2022/12/04 01:49:47;;;;;;;45.53;29.25;;;1.40;99.90;;;;;;4805045;29;20098;-87
2022/12/04 01:52:36;;;;;;;45.35;28.52;;;1.70;99.90;;;;;;4808629;29;20034;-86
2022/12/04 01:55:05;;;;;;;44.20;29.23;;;2.30;99.90;;;;;;4807232;29;20100;-87
2022/12/04 01:57:46;;;;;;;45.60;29.13;;;0.70;99.90;;;;;;4795829;29;20506;-87
2022/12/04 02:00:47;;;;;;;49.80;29.67;;;1.60;99.90;;;;;;4791377;29;20133;-87
2022/12/04 02:03:16;;;;;;;46.95;29.83;;;0.70;99.90;;;;;;4805695;29;20506;-86
2022/12/04 02:05:42;;;;;;;49.47;29.52;;;1.40;99.90;;;;;;4790888;29;20051;-86
2022/12/04 02:08:24;;;;;;;44.60;28.70;;;1.90;99.90;;;;;;4790766;29;20122;-87
2022/12/04 02:15:09;;;;;;;47.38;29.63;;;0.60;99.90;;;;;;4817381;29;20054;-86
2022/12/04 02:18:20;;;;;;;45.55;28.40;;;0.60;99.90;;;;;;4804615;29;20425;-87
2022/12/04 02:24:43;;;;;;;;;;;;;;;;;;;;;
2022/12/04 02:28:11;;;;;;;;;;;;;;;;;;;;;
2022/12/04 02:30:50;;;;;;;47.38;29.58;;;0.60;99.90;;;;;;4804823;29;20046;-86
2022/12/04 02:34:17;;;;;;;51.70;27.58;;;0.60;99.90;;;;;;4817986;29;20426;-86
2022/12/04 02:36:57;;;;;;;47.08;30.85;;;1.10;99.90;;;;;;4734800;30;20051;-86
2022/12/04 02:39:32;;;;;;;47.35;29.08;;;0.70;99.90;;;;;;4738897;30;20054;-87
2022/12/04 02:42:51;;;;;;;46.42;28.50;;;0.60;99.90;;;;;;4795916;29;20114;-87
2022/12/04 02:55:57;;;;;;;48.33;29.58;;;0.60;99.90;;;;;;4836161;29;20433;-87
2022/12/04 02:58:32;;;;;;;50.40;32.08;;;0.60;99.90;;;;;;4838284;29;20045;-86
2022/12/04 03:01:59;;;;;;;44.60;30.13;;;0.60;99.90;;;;;;4838789;29;20102;-86
2022/12/04 03:04:45;;;;;;;47.78;31.27;;;0.70;99.90;;;;;;4798995;29;20458;-88
2022/12/04 03:07:19;;;;;;;52.30;32.50;;;1.40;99.90;;;;;;4821320;29;20049;-86
2022/12/04 03:09:58;;;;;;;47.13;32.10;;;0.60;99.90;;;;;;4807303;29;20057;-86
2022/12/04 03:16:33;;;;;;;50.53;30.88;;;0.80;99.90;;;;;;4837822;29;20054;-87
2022/12/04 03:20:10;;;;;;;49.42;29.42;;;0.90;99.90;;;;;;4760766;29;20058;-87
2022/12/04 03:23:43;;;;;;;51.95;33.28;;;0.30;99.90;;;;;;4698180;30;20165;-86
2022/12/04 03:27:42;;;;;;;;;;;;;;;;;;;;;
2022/12/04 03:31:21;;;;;;;;;;;;;;;;;;;;;
2022/12/04 03:38:43;;;;;;;53.25;32.97;;;0.20;99.90;;;;;;4790248;29;20133;-86
2022/12/04 03:41:53;;;;;;;53.22;33.55;;;-0.10;99.90;;;;;;4751940;29;20077;-87
2022/12/04 03:44:43;;;;;;;52.05;32.50;;;-0.30;99.90;;;;;;4782318;29;20051;-86
2022/12/04 03:58:49;;;;;;;54.97;35.85;;;0.10;99.90;;;;;;4796109;29;20045;-86
2022/12/04 04:05:02;;;;;;;52.67;34.53;;;-0.10;99.90;;;;;;4820200;29;20050;-87
2022/12/04 04:07:44;;;;;;;54.50;34.17;;;0.40;99.90;;;;;;4835856;29;20054;-86
2022/12/04 04:10:54;;;;;;;51.17;34.03;;;0.30;99.90;;;;;;4834854;29;20082;-86
2022/12/04 04:28:31;;;;;;;56.22;35.13;;;0.20;99.90;;;;;;4835923;29;20128;-86
2022/12/04 04:39:15;;;;;;;60.88;36.70;;;0.40;99.90;;;;;;4801930;29;20125;-87
2022/12/04 04:43:24;;;;;;;;;;;;;;;;;;;;;
2022/12/04 04:46:34;;;;;;;55.30;35.97;;;0.30;99.90;;;;;;4820361;29;20266;-86
2022/12/04 04:49:31;;;;;;;52.33;33.60;;;0.30;99.90;;;;;;4806110;29;20162;-87
2022/12/04 04:52:32;;;;;;;52.83;33.85;;;0.30;99.90;;;;;;4816817;29;20982;-87
2022/12/04 04:59:30;;;;;;;56.35;34.08;;;0.40;99.90;;;;;;4761093;30;20077;-86
2022/12/04 05:13:52;;;;;;;;;;;;;;;;;;;;;
2022/12/04 05:43:04;;;;;;;52.53;32.58;;;0.30;99.90;;;;;;4815040;29;20051;-86
2022/12/04 06:11:43;;;;;;;49.70;32.08;;;0.30;99.90;;;;;;4838753;29;20057;-86
2022/12/04 06:22:01;;;;;;;51.20;31.45;;;0.30;99.90;;;;;;4761481;30;20043;-86
2022/12/04 06:32:53;;;;;;;53.15;32.75;;;0.30;99.90;;;;;;4652039;30;20507;-87
2022/12/04 06:38:12;;;;;;;48.65;30.77;;;0.40;99.90;;;;;;4926889;24;20050;-87
2022/12/04 06:45:01;;;;;;;46.72;30.63;;;0.80;99.90;;;;;;4733810;30;20051;-86
2022/12/04 06:48:27;;;;;;;;;;;;;;;;;;;;;
2022/12/04 06:59:31;;;;;;;50.65;31.80;;;0.40;99.90;;;;;;4714561;30;20121;-87
2022/12/04 07:07:02;;;;;;;;;;;;;;;;;;;;;
2022/12/04 07:09:51;;;;;;;;;;;;;;;;;;;;;
2022/12/04 07:12:41;;;;;;;49.83;32.05;;;1.60;99.90;;;;;;4705033;30;20429;-86
2022/12/04 07:15:07;;;;;;;52.22;32.55;;;1.00;99.90;;;;;;4710808;30;20841;-86
2022/12/04 07:17:33;;;;;;;53.38;33.45;;;0.30;99.90;;;;;;4724415;30;20100;-86
2022/12/04 07:20:20;;;;;;;53.55;32.90;;;0.70;99.90;;;;;;4748407;30;20086;-85
2022/12/04 07:23:07;;;;;;;53.72;33.72;;;0.30;99.90;;;;;;4748457;30;20106;-87
2022/12/04 07:26:12;;;;;;;53.45;33.30;;;1.00;99.90;;;;;;4747437;30;20493;-85
2022/12/04 07:29:02;;;;;;;55.97;33.83;;;0.30;99.90;;;;;;4709299;30;20072;-86
2022/12/04 07:31:32;;;;;;;59.85;33.17;;;0.30;99.90;;;;;;4714263;30;20133;-86
2022/12/04 07:34:11;;;;;;;55.92;33.42;;;0.30;99.90;;;;;;4734000;30;20074;-85
2022/12/04 07:36:39;;;;;;;56.72;34.63;;;0.70;99.90;;;;;;4746559;30;20047;-85
2022/12/04 07:39:07;;;;;;;57.55;35.58;;;0.30;99.90;;;;;;4746934;29;20052;-84
2022/12/04 07:41:32;;;;;;;59.97;33.72;;;0.30;99.90;;;;;;4799123;29;20097;-83
2022/12/04 07:44:18;;;;;;;64.00;35.42;;;0.30;99.90;;;;;;4788402;29;20042;-87
2022/12/04 07:58:17;;;;;;;57.00;34.20;;;0.80;99.90;;;;;;4782657;29;20100;-86
2022/12/04 08:00:44;;;;;;;63.83;35.53;;;0.50;99.90;;;;;;4766869;30;20052;-86
2022/12/04 08:10:54;;;;;;;57.78;34.03;;;0.30;99.90;;;;;;4780877;29;20042;-86
2022/12/04 08:14:10;;;;;;;57.28;34.72;;;0.30;99.90;;;;;;4750379;30;20583;-86
2022/12/04 08:16:36;;;;;;;58.90;35.72;;;0.30;99.90;;;;;;4765746;30;20108;-86
2022/12/04 08:19:25;;;;;;;59.17;34.80;;;0.40;99.90;;;;;;4768228;29;20035;-86
2022/12/04 08:25:22;;;;;;;56.95;35.53;;;0.30;99.90;;;;;;4820567;29;20049;-84
2022/12/04 08:27:48;;;;;;;61.90;36.70;;;0.40;99.90;;;;;;4802646;29;20050;-83
2022/12/04 08:30:30;;;;;;;57.80;35.47;;;0.70;99.90;;;;;;4814044;29;20053;-86
2022/12/04 08:32:55;;;;;;;62.00;35.47;;;0.40;99.90;;;;;;4820636;29;20078;-86
2022/12/04 08:35:21;;;;;;;62.65;35.58;;;0.70;99.90;;;;;;4793254;29;20054;-85
2022/12/04 08:37:52;;;;;;;64.15;36.25;;;0.40;99.90;;;;;;4804549;29;20046;-86
2022/12/04 08:40:18;;;;;;;58.25;34.70;;;0.10;99.90;;;;;;4800041;29;20057;-85
2022/12/04 08:42:43;;;;;;;54.58;34.53;;;0.40;99.90;;;;;;4802422;29;20058;-85
2022/12/04 08:45:09;;;;;;;56.63;34.00;;;0.40;99.90;;;;;;4799837;29;20406;-85
2022/12/04 08:47:35;;;;;;;59.20;34.38;;;0.50;99.90;;;;;;4799489;29;20106;-85
2022/12/04 08:50:01;;;;;;;64.28;34.85;;;0.50;99.90;;;;;;4800355;29;20038;-85
2022/12/04 08:52:37;;;;;;;61.22;33.28;;;0.90;99.90;;;;;;4802462;29;20050;-87
2022/12/04 08:55:06;;;;;;;53.25;31.00;;;1.00;99.90;;;;;;4802081;29;20101;-88
2022/12/04 08:57:34;;;;;;;58.25;33.28;;;0.50;99.90;;;;;;4798834;29;20053;-87
2022/12/04 09:00:00;;;;;;;60.35;34.03;;;1.30;99.90;;;;;;4800699;29;20053;-86
2022/12/04 09:02:26;;;;;;;57.80;34.03;;;0.60;99.90;;;;;;4799975;29;20050;-85
2022/12/04 09:04:54;;;;;;;57.78;34.20;;;0.60;99.90;;;;;;4799914;29;20046;-86
2022/12/04 09:07:20;;;;;;;60.00;35.90;;;0.60;99.90;;;;;;4783235;29;20512;-85
2022/12/04 09:09:45;;;;;;;63.95;36.22;;;1.10;99.90;;;;;;4801141;29;20054;-85
2022/12/04 09:12:11;;;;;;;62.90;35.22;;;0.60;99.90;;;;;;4801007;29;20050;-85
2022/12/04 09:14:40;;;;;;;58.38;36.60;;;0.60;99.90;;;;;;4798455;29;20050;-86
2022/12/04 09:17:17;;;;;;;59.63;35.20;;;0.60;99.90;;;;;;4799597;29;20055;-85
2022/12/04 09:19:43;;;;;;;60.15;36.30;;;0.70;99.90;;;;;;4798929;29;21274;-85
2022/12/04 09:22:46;;;;;;;57.28;33.55;;;0.70;99.90;;;;;;4801602;29;20054;-84
2022/12/04 09:25:16;;;;;;;59.28;34.67;;;1.30;99.90;;;;;;4815767;29;20046;-84
2022/12/04 09:28:10;;;;;;;56.85;33.72;;;0.70;99.90;;;;;;4787915;29;20078;-88
2022/12/04 09:30:57;;;;;;;57.45;33.40;;;0.50;99.90;;;;;;4794546;29;20762;-89
2022/12/04 09:33:23;;;;;;;57.17;34.30;;;0.80;99.90;;;;;;4797492;29;20053;-84
2022/12/04 09:35:49;;;;;;;57.47;32.10;;;0.80;99.90;;;;;;4797834;29;20038;-84
2022/12/04 09:46:11;;;;;;;52.85;31.98;;;0.90;99.90;;;;;;4814435;29;20073;-84
2022/12/04 09:49:34;;;;;;;55.03;32.85;;;0.90;99.90;;;;;;4797976;29;20050;-85
2022/12/04 09:52:48;;;;;;;52.83;31.90;;;0.90;99.90;;;;;;4794684;29;20090;-85
2022/12/04 09:56:57;;;;;;;55.28;33.15;;;1.00;99.90;;;;;;4777504;29;20137;-86
2022/12/04 09:59:47;;;;;;;52.97;33.17;;;1.00;99.90;;;;;;4745658;30;20055;-84
2022/12/04 10:02:38;;;;;;;55.35;34.10;;;1.00;99.90;;;;;;4807669;29;20042;-85
2022/12/04 10:06:08;;;;;;;58.33;34.28;;;1.10;99.90;;;;;;4791135;29;20042;-84
2022/12/04 10:09:00;;;;;;;45.13;29.77;;;1.10;99.90;;;;;;4785357;29;20070;-85
2022/12/04 10:11:41;;;;;;;49.85;30.42;;;1.10;99.90;;;;;;4772655;29;20141;-86
2022/12/04 10:14:21;;;;;;;48.45;31.60;;;1.10;99.90;;;;;;4786883;29;20058;-85
2022/12/04 10:17:05;;;;;;;48.25;30.65;;;1.10;99.90;;;;;;4817969;29;20581;-83
2022/12/04 10:19:48;;;;;;;48.58;30.05;;;1.20;99.90;;;;;;4812474;29;20090;-85
2022/12/04 10:22:22;;;;;;;48.53;31.33;;;1.20;99.90;;;;;;4805326;29;20094;-85
2022/12/04 10:24:50;;;;;;;45.88;30.33;;;1.20;99.90;;;;;;4819377;29;20042;-86
2022/12/04 10:27:31;;;;;;;46.80;30.35;;;1.20;99.90;;;;;;4803942;29;20086;-86
2022/12/04 10:30:16;;;;;;;46.90;30.30;;;1.20;99.90;;;;;;4817683;29;20046;-85
2022/12/04 10:32:57;;;;;;;45.45;29.35;;;1.30;99.90;;;;;;4791601;29;20616;-86
2022/12/04 10:35:29;;;;;;;41.35;29.08;;;0.60;99.90;;;;;;4801203;29;20786;-85
2022/12/04 10:38:02;;;;;;;39.97;28.60;;;1.30;99.90;;;;;;4802798;29;21617;-84
2022/12/04 10:40:45;;;;;;;43.67;28.58;;;1.40;99.90;;;;;;4787583;29;20468;-85
2022/12/04 10:43:33;;;;;;;42.30;29.00;;;1.40;99.90;;;;;;4789992;29;20054;-84
2022/12/04 10:45:59;;;;;;;39.83;27.23;;;1.40;99.90;;;;;;4798708;29;20074;-85
2022/12/04 10:48:47;;;;;;;39.65;27.35;;;1.50;99.90;;;;;;4815878;29;20826;-85
2022/12/04 10:55:08;;;;;;;36.15;26.13;;;1.60;99.90;;;;;;4798956;29;20141;-85
2022/12/04 10:57:42;;;;;;;38.72;25.30;;;1.60;99.90;;;;;;4799444;29;20062;-81
2022/12/04 11:00:37;;;;;;;44.45;28.35;;;1.80;99.90;;;;;;4823249;29;20074;-81
2022/12/04 11:03:32;;;;;;;37.42;25.17;;;1.60;99.90;;;;;;4791449;29;20061;-81
2022/12/04 11:06:04;;;;;;;37.20;24.63;;;1.90;99.90;;;;;;4788829;29;20059;-82
2022/12/04 11:08:42;;;;;;;35.92;25.40;;;1.70;99.90;;;;;;4806213;29;20114;-81
2022/12/04 11:11:37;;;;;;;40.10;25.45;;;1.70;99.90;;;;;;4790714;29;20054;-81
2022/12/04 11:14:13;;;;;;;34.38;23.52;;;1.70;99.90;;;;;;4792301;29;20050;-81
2022/12/04 11:16:48;;;;;;;36.30;25.30;;;1.80;99.90;;;;;;4794440;29;20050;-82
2022/12/04 11:19:30;;;;;;;35.40;24.33;;;1.80;99.90;;;;;;4808373;29;20050;-81
2022/12/04 11:22:06;;;;;;;31.83;23.92;;;1.80;99.90;;;;;;4805864;29;20050;-81
2022/12/04 11:24:37;;;;;;;31.38;22.70;;;3.50;99.90;;;;;;4805539;29;20089;-81
2022/12/04 11:27:18;;;;;;;32.88;21.92;;;1.80;99.90;;;;;;4821600;29;20038;-81
2022/12/04 11:30:57;;;;;;;33.22;23.13;;;2.20;99.90;;;;;;4809028;29;20134;-83
2022/12/04 11:34:07;;;;;;;28.95;20.48;;;1.00;99.90;;;;;;4805508;29;20042;-83
2022/12/04 11:43:36;;;;;;;22.77;17.10;;;2.10;99.90;;;;;;4788814;29;20050;-83
2022/12/04 11:46:22;;;;;;;26.67;17.77;;;2.20;99.90;;;;;;4803331;29;20059;-83
2022/12/04 11:48:48;;;;;;;24.23;16.67;;;2.20;99.90;;;;;;4805880;29;20039;-84
2022/12/04 11:51:38;;;;;;;24.20;16.17;;;2.20;99.90;;;;;;4805875;29;20558;-83
2022/12/04 11:54:34;;;;;;;21.83;16.15;;;1.80;99.90;;;;;;4804826;29;20042;-83
2022/12/04 11:58:20;;;;;;;;;;;;;;;;;;;;;
2022/12/04 12:01:28;;;;;;;27.80;18.60;;;2.30;99.90;;;;;;4717634;29;20123;-83
2022/12/04 12:08:38;;;;;;;23.27;16.13;;;2.20;99.90;;;;;;4782778;29;20602;-82
2022/12/04 12:46:48;;;;;;;;;;;;;;;;;;;;;
2022/12/04 13:08:40;;;;;;;22.67;16.35;;;3.10;99.90;;;;;;4822137;29;20084;-82
2022/12/04 13:11:15;;;;;;;24.63;16.15;;;2.40;99.90;;;;;;4785566;29;20066;-82
2022/12/04 13:13:57;;;;;;;23.05;16.00;;;2.30;99.90;;;;;;4822239;29;20069;-80
2022/12/04 13:16:46;;;;;;;23.63;16.67;;;2.30;99.90;;;;;;4807241;29;20129;-82
2022/12/04 13:19:42;;;;;;;24.58;16.60;;;2.40;99.90;;;;;;4801875;29;20142;-82
2022/12/04 13:22:19;;;;;;;24.20;16.70;;;2.40;99.90;;;;;;4800972;29;20074;-84
2022/12/04 13:28:38;;;;;;;23.80;16.08;;;2.40;99.90;;;;;;4819487;29;20041;-83
2022/12/04 13:31:48;;;;;;;22.88;15.73;;;2.40;99.90;;;;;;4828437;29;20094;-84
2022/12/04 13:38:47;;;;;;;22.65;15.18;;;2.50;99.90;;;;;;4843336;24;20046;-84
2022/12/04 13:41:27;;;;;;;21.92;16.88;;;2.50;99.90;;;;;;4748735;29;20101;-87
2022/12/04 13:43:59;;;;;;;24.63;17.83;;;2.50;99.90;;;;;;4799353;29;20058;-88
2022/12/04 13:46:42;;;;;;;23.65;16.40;;;2.50;99.90;;;;;;4789506;29;20157;-85
2022/12/04 13:49:34;;;;;;;26.35;18.92;;;2.50;99.90;;;;;;4800956;29;20061;-87
2022/12/04 13:52:03;;;;;;;24.98;17.77;;;2.50;99.90;;;;;;4783505;29;20050;-84
2022/12/04 13:54:54;;;;;;;23.08;17.42;;;3.20;99.90;;;;;;4796086;29;20744;-87
2022/12/04 13:57:27;;;;;;;23.02;16.45;;;2.50;99.90;;;;;;4799283;29;21416;-86
2022/12/04 14:00:32;;;;;;;23.88;17.65;;;2.40;99.90;;;;;;4760852;29;20082;-83
2022/12/04 14:03:19;;;;;;;23.23;17.52;;;2.40;99.90;;;;;;4807254;29;20058;-83
2022/12/04 14:05:47;;;;;;;25.08;17.77;;;2.40;99.90;;;;;;4794159;29;20066;-84
2022/12/04 14:08:18;;;;;;;25.00;18.65;;;2.50;99.90;;;;;;4807906;29;20054;-84
2022/12/04 14:11:03;;;;;;;27.40;19.85;;;2.40;99.90;;;;;;4795033;29;20047;-83
2022/12/04 14:13:43;;;;;;;26.67;17.73;;;2.50;99.90;;;;;;4794599;29;20699;-82
2022/12/04 14:16:39;;;;;;;27.70;18.13;;;2.50;99.90;;;;;;4795822;29;20537;-85
2022/12/04 14:19:43;;;;;;;26.08;17.75;;;2.40;99.90;;;;;;4801350;29;20065;-85
2022/12/04 14:22:32;;;;;;;27.58;18.77;;;2.50;99.90;;;;;;4782548;29;20076;-85
2022/12/04 14:28:34;;;;;;;28.95;18.92;;;2.40;99.90;;;;;;4803327;29;20049;-84
2022/12/04 14:31:25;;;;;;;25.70;17.90;;;2.40;99.90;;;;;;4799278;29;20062;-84
2022/12/04 14:34:22;;;;;;;26.05;17.27;;;2.40;99.90;;;;;;4792862;29;20051;-84
2022/12/04 14:36:50;;;;;;;28.80;18.80;;;2.40;99.90;;;;;;4793306;29;20231;-84
2022/12/04 14:39:32;;;;;;;24.13;17.80;;;2.40;99.90;;;;;;4780005;29;20403;-84
2022/12/04 14:42:06;;;;;;;28.60;19.05;;;2.40;99.90;;;;;;4793422;29;20061;-84
2022/12/04 14:44:31;;;;;;;27.25;18.25;;;2.30;99.90;;;;;;4782539;29;20058;-83
2022/12/04 14:47:18;;;;;;;26.02;19.20;;;2.30;99.90;;;;;;4801230;29;20103;-83
2022/12/04 14:50:16;;;;;;;26.98;18.80;;;2.30;99.90;;;;;;4804650;29;20138;-82
2022/12/04 14:57:11;;;;;;;24.65;17.65;;;2.40;99.90;;;;;;4763214;29;20761;-87
2022/12/04 14:59:45;;;;;;;25.27;17.90;;;2.40;99.90;;;;;;4761733;29;20043;-87
2022/12/04 15:02:33;;;;;;;27.65;19.42;;;2.70;99.90;;;;;;4746724;29;20101;-85
2022/12/04 15:04:59;;;;;;;26.33;18.80;;;2.30;99.90;;;;;;4791969;29;20062;-84
2022/12/04 15:07:29;;;;;;;28.95;18.65;;;2.30;99.90;;;;;;4781273;29;20038;-85
2022/12/04 15:13:01;;;;;;;27.52;18.92;;;2.30;99.90;;;;;;4825553;29;20169;-84
2022/12/04 15:15:28;;;;;;;27.15;18.60;;;2.40;99.90;;;;;;4787400;29;20054;-81
2022/12/04 15:17:57;;;;;;;25.83;18.67;;;2.30;99.90;;;;;;4788244;29;20042;-83
2022/12/04 15:20:22;;;;;;;26.55;19.30;;;2.30;99.90;;;;;;4800187;29;20448;-82
2022/12/04 15:22:59;;;;;;;32.00;20.90;;;2.30;99.90;;;;;;4794921;29;20151;-83
2022/12/04 15:25:32;;;;;;;29.17;20.02;;;2.40;99.90;;;;;;4794456;29;20053;-84
2022/12/04 15:28:18;;;;;;;28.15;19.00;;;2.30;99.90;;;;;;4800065;29;20868;-85
2022/12/04 15:30:44;;;;;;;29.95;20.88;;;2.30;99.90;;;;;;4811995;29;20066;-84
2022/12/04 15:33:38;;;;;;;27.65;19.48;;;2.30;99.90;;;;;;4801357;29;20565;-86
2022/12/04 15:36:21;;;;;;;31.30;19.90;;;2.30;99.90;;;;;;4798617;29;20175;-83
2022/12/04 15:38:54;;;;;;;27.08;19.52;;;2.40;99.90;;;;;;4796489;29;20070;-85
2022/12/04 15:41:42;;;;;;;30.83;19.95;;;2.40;99.90;;;;;;4784274;29;20126;-84
2022/12/04 15:44:49;;;;;;;25.92;19.60;;;2.40;99.90;;;;;;4801969;29;21620;-86
2022/12/04 15:47:20;;;;;;;28.98;19.63;;;2.40;99.90;;;;;;4763472;29;20078;-84
2022/12/04 15:49:55;;;;;;;30.30;20.05;;;2.30;99.90;;;;;;4799805;29;20533;-85
2022/12/04 15:52:24;;;;;;;30.20;19.92;;;2.40;99.90;;;;;;4789157;29;20066;-84
2022/12/04 15:54:57;;;;;;;30.75;20.58;;;2.40;99.90;;;;;;4793086;29;20144;-83
2022/12/04 15:57:33;;;;;;;28.55;20.10;;;2.40;99.90;;;;;;4776217;29;20270;-83
2022/12/04 16:00:31;;;;;;;30.08;19.40;;;2.40;99.90;;;;;;4805060;29;20050;-83
2022/12/04 16:03:00;;;;;;;27.85;18.50;;;2.40;99.90;;;;;;4775313;29;20166;-81
2022/12/04 16:05:33;;;;;;;26.85;19.75;;;2.50;99.90;;;;;;4797105;29;20042;-85
2022/12/04 16:08:29;;;;;;;29.00;19.95;;;2.50;99.90;;;;;;4810819;29;20053;-86
2022/12/04 16:11:06;;;;;;;31.33;19.90;;;2.50;99.90;;;;;;4810612;29;20034;-86
2022/12/04 16:13:37;;;;;;;28.42;19.55;;;2.20;99.90;;;;;;4795866;29;20046;-86
2022/12/04 16:16:15;;;;;;;29.17;19.85;;;2.50;99.90;;;;;;4827320;29;20046;-85
2022/12/04 16:18:42;;;;;;;29.02;19.92;;;2.60;99.90;;;;;;4794994;29;20054;-86
2022/12/04 16:21:16;;;;;;;31.15;20.80;;;2.60;99.90;;;;;;4799220;29;20057;-84
2022/12/04 16:23:42;;;;;;;30.98;19.83;;;2.60;99.90;;;;;;4814511;29;20046;-84
2022/12/04 16:26:13;;;;;;;27.42;19.30;;;2.60;99.90;;;;;;4780514;29;20046;-81
2022/12/04 16:28:38;;;;;;;29.35;19.10;;;2.60;99.90;;;;;;4795459;29;20057;-83
2022/12/04 16:31:04;;;;;;;30.27;19.42;;;2.70;99.90;;;;;;4783230;29;20051;-83
2022/12/04 16:33:29;;;;;;;31.17;19.60;;;2.70;99.90;;;;;;4812539;29;20049;-85
2022/12/04 16:35:55;;;;;;;26.67;18.88;;;2.80;99.90;;;;;;4798773;29;20058;-85
2022/12/04 16:38:21;;;;;;;29.17;19.48;;;2.80;99.90;;;;;;4785713;29;20046;-86
2022/12/04 16:40:47;;;;;;;28.35;19.15;;;2.80;99.90;;;;;;4799591;29;20570;-84
2022/12/04 16:43:14;;;;;;;32.22;21.63;;;2.90;99.90;;;;;;4800082;29;20054;-83
2022/12/04 16:45:46;;;;;;;28.77;20.60;;;2.80;99.90;;;;;;4816789;29;20057;-81
2022/12/04 16:48:12;;;;;;;31.38;20.48;;;2.80;99.90;;;;;;4806587;29;20370;-81
2022/12/04 16:50:38;;;;;;;31.10;20.10;;;2.80;99.90;;;;;;4801444;29;20100;-81
2022/12/04 16:53:04;;;;;;;33.30;21.08;;;2.90;99.90;;;;;;4800351;29;20521;-82
2022/12/04 16:55:35;;;;;;;34.45;22.67;;;2.90;99.90;;;;;;4828562;29;20056;-84
2022/12/04 16:58:02;;;;;;;36.42;23.73;;;2.90;99.90;;;;;;4786069;29;20046;-82
2022/12/04 17:00:27;;;;;;;33.42;21.17;;;2.90;99.90;;;;;;4799843;29;20343;-83
2022/12/04 17:02:53;;;;;;;30.98;21.15;;;2.90;99.90;;;;;;4803241;29;20699;-83
2022/12/04 17:05:53;;;;;;;34.35;22.10;;;2.90;99.90;;;;;;4817697;23;20133;31
2022/12/04 17:08:12;;;;;;;36.75;23.90;;;2.90;99.90;;;;;;4767688;29;20051;-85
2022/12/04 17:10:38;;;;;;;36.92;24.23;;;2.90;99.90;;;;;;4778564;29;20054;-82
2022/12/04 17:13:03;;;;;;;36.00;22.60;;;2.90;99.90;;;;;;4770090;29;20058;-84
2022/12/04 17:18:05;;;;;;;34.28;22.95;;;3.00;99.90;;;;;;4878713;24;20050;-83
2022/12/04 17:20:30;;;;;;;35.72;23.40;;;2.90;99.90;;;;;;4800196;29;20056;-83
2022/12/04 17:22:56;;;;;;;36.85;23.63;;;2.90;99.90;;;;;;4813289;29;20042;-82
2022/12/04 17:25:22;;;;;;;37.80;24.38;;;3.00;99.90;;;;;;4799807;29;20050;-83
2022/12/04 17:27:48;;;;;;;36.15;23.63;;;3.00;99.90;;;;;;4801770;29;20042;-84
2022/12/04 17:30:14;;;;;;;37.13;24.38;;;3.00;99.90;;;;;;4804656;29;20033;-82
2022/12/04 17:32:40;;;;;;;37.40;23.60;;;3.00;99.90;;;;;;4803751;29;20522;-83
2022/12/04 17:35:08;;;;;;;38.33;22.92;;;3.00;99.90;;;;;;4817581;29;20046;-83
2022/12/04 17:37:34;;;;;;;34.80;23.65;;;3.00;99.90;;;;;;4789335;29;20393;-82
2022/12/04 17:40:00;;;;;;;33.03;21.92;;;3.00;99.90;;;;;;4801777;29;20054;-83
2022/12/04 17:42:26;;;;;;;32.22;23.15;;;3.00;99.90;;;;;;4788278;29;20061;-81
2022/12/04 17:44:51;;;;;;;35.55;24.42;;;3.00;99.90;;;;;;4803870;29;20052;-85
2022/12/04 17:47:17;;;;;;;37.08;24.15;;;3.00;99.90;;;;;;4807990;29;20044;-83
2022/12/04 17:49:43;;;;;;;38.65;24.52;;;3.00;99.90;;;;;;4804340;29;20336;-83
2022/12/04 17:52:09;;;;;;;33.53;22.73;;;3.10;99.90;;;;;;4800160;29;20046;-82
2022/12/04 17:54:34;;;;;;;34.13;23.05;;;3.10;99.90;;;;;;4816338;29;20569;-86
2022/12/04 17:57:00;;;;;;;35.03;23.08;;;3.10;99.90;;;;;;4801560;29;20046;-82
2022/12/04 17:59:26;;;;;;;37.17;23.50;;;3.10;99.90;;;;;;4802183;29;20133;-83
2022/12/04 18:01:51;;;;;;;32.75;23.05;;;3.10;99.90;;;;;;4800663;29;20046;-84
2022/12/04 18:04:18;;;;;;;33.25;23.05;;;3.20;99.90;;;;;;4801419;29;20050;-83
2022/12/04 18:06:45;;;;;;;33.00;23.50;;;3.20;99.90;;;;;;4821841;29;20110;-83
2022/12/04 18:09:14;;;;;;;35.25;23.10;;;3.20;99.90;;;;;;4805628;29;20125;-84
2022/12/04 18:11:42;;;;;;;31.10;22.58;;;3.20;99.90;;;;;;4785284;29;21532;-83
2022/12/04 18:14:11;;;;;;;29.67;21.75;;;3.20;99.90;;;;;;4788843;29;20065;-85
2022/12/04 18:16:43;;;;;;;32.67;22.52;;;3.20;99.90;;;;;;4834036;29;20050;-85
2022/12/04 18:19:10;;;;;;;32.63;23.15;;;3.20;99.90;;;;;;4810707;29;20340;-86
2022/12/04 18:21:35;;;;;;;31.73;22.30;;;3.20;99.90;;;;;;4805625;29;20054;-86
2022/12/04 18:24:02;;;;;;;30.55;22.15;;;3.30;99.90;;;;;;4795893;29;20054;-81
2022/12/04 18:26:34;;;;;;;30.50;21.52;;;3.30;99.90;;;;;;4818890;29;20053;-84
2022/12/04 18:29:06;;;;;;;31.38;22.40;;;3.30;99.90;;;;;;4806549;29;20046;-85
2022/12/04 18:31:42;;;;;;;31.02;22.48;;;2.90;99.90;;;;;;4805466;29;20046;-86
2022/12/04 18:34:09;;;;;;;37.45;22.98;;;3.30;99.90;;;;;;4810017;29;20062;-85
2022/12/04 18:36:38;;;;;;;31.60;23.38;;;3.50;99.90;;;;;;4808658;29;20049;-83
2022/12/04 18:39:10;;;;;;;33.13;23.73;;;3.30;99.90;;;;;;4795782;29;20125;-83
2022/12/04 18:41:35;;;;;;;30.90;21.58;;;3.40;99.90;;;;;;4811549;29;20042;-83
2022/12/04 18:44:02;;;;;;;31.85;23.23;;;3.40;99.90;;;;;;4814255;29;20082;-84
2022/12/04 18:46:27;;;;;;;31.20;22.75;;;3.40;99.90;;;;;;4843426;29;20091;-84
2022/12/04 18:48:57;;;;;;;35.08;24.10;;;3.40;99.90;;;;;;4814437;29;20042;-84
2022/12/04 18:51:50;;;;;;;35.97;24.55;;;3.40;99.90;;;;;;4815256;29;20049;-84
2022/12/04 18:54:20;;;;;;;33.42;24.65;;;3.40;99.90;;;;;;4795807;29;20333;-83
2022/12/04 18:56:45;;;;;;;32.95;24.25;;;3.40;99.90;;;;;;4824488;29;20034;-84
2022/12/04 18:59:14;;;;;;;33.67;24.70;;;3.40;99.90;;;;;;4809425;29;20068;-84
2022/12/04 19:01:40;;;;;;;34.30;24.92;;;3.40;99.90;;;;;;4825418;29;20805;-84